createdAt,value
2018-04-08T00:00:34.173Z,0.00
2018-04-08T00:01:34.087Z,0.00
2018-04-08T00:02:34.011Z,0.00
2018-04-08T00:03:33.936Z,0.00
2018-04-08T00:04:33.850Z,0.00
2018-04-08T00:05:33.774Z,0.00
2018-04-08T00:06:33.702Z,0.00
2018-04-08T00:07:33.625Z,0.00
2018-04-08T00:08:33.538Z,0.00
2018-04-08T00:09:33.462Z,0.00
2018-04-08T00:10:33.388Z,0.00
2018-04-08T00:11:33.337Z,0.00
2018-04-08T00:12:33.223Z,0.00
2018-04-08T00:13:33.149Z,0.00
2018-04-08T00:14:33.062Z,0.00
2018-04-08T00:15:32.987Z,0.00
2018-04-08T00:16:32.916Z,0.00
2018-04-08T00:17:32.824Z,0.00
2018-04-08T00:18:32.753Z,0.00
2018-04-08T00:19:32.675Z,0.00
2018-04-08T00:20:32.588Z,0.00
2018-04-08T00:21:32.514Z,0.00
2018-04-08T00:22:32.441Z,0.00
2018-04-08T00:23:32.351Z,0.00
2018-04-08T00:24:32.275Z,0.00
2018-04-08T00:25:32.202Z,0.00
2018-04-08T00:26:32.127Z,0.00
2018-04-08T00:27:32.042Z,0.00
2018-04-08T00:28:31.966Z,0.00
2018-04-08T00:29:31.876Z,0.00
2018-04-08T00:30:31.814Z,0.00
2018-04-08T00:31:31.726Z,0.00
2018-04-08T00:32:31.642Z,0.00
2018-04-08T00:33:31.565Z,0.00
2018-04-08T00:34:31.490Z,0.00
2018-04-08T00:35:31.414Z,0.00
2018-04-08T00:36:31.326Z,0.00
2018-04-08T00:37:31.252Z,0.00
2018-04-08T00:38:31.164Z,0.00
2018-04-08T00:39:31.091Z,0.00
2018-04-08T00:40:31.015Z,0.00
2018-04-08T00:41:30.927Z,0.00
2018-04-08T00:42:30.854Z,0.00
2018-04-08T00:43:30.777Z,0.00
2018-04-08T00:44:30.690Z,0.00
2018-04-08T00:45:30.618Z,0.00
2018-04-08T00:46:30.548Z,0.00
2018-04-08T00:47:30.455Z,0.00
2018-04-08T00:48:30.378Z,0.00
2018-04-08T00:49:30.317Z,0.00
2018-04-08T00:50:30.219Z,0.00
2018-04-08T00:51:30.141Z,0.00
2018-04-08T00:52:30.066Z,0.00
2018-04-08T00:53:29.979Z,0.00
2018-04-08T00:54:29.905Z,0.00
2018-04-08T00:55:29.828Z,0.00
2018-04-08T00:56:29.742Z,0.00
2018-04-08T00:57:29.667Z,0.00
2018-04-08T00:58:29.596Z,0.00
2018-04-08T00:59:29.504Z,0.00
2018-04-08T01:00:29.429Z,0.00
2018-04-08T01:01:29.354Z,0.00
2018-04-08T01:02:29.267Z,0.00
2018-04-08T01:03:29.193Z,0.00
2018-04-08T01:04:29.106Z,0.00
2018-04-08T01:05:29.029Z,0.00
2018-04-08T01:06:28.955Z,0.00
2018-04-08T01:07:28.869Z,0.00
2018-04-08T01:08:28.795Z,0.00
2018-04-08T01:09:28.720Z,0.00
2018-04-08T01:10:28.630Z,0.00
2018-04-08T01:11:28.555Z,0.00
2018-04-08T01:12:28.480Z,0.00
2018-04-08T01:13:28.394Z,0.00
2018-04-08T01:14:28.325Z,0.00
2018-04-08T01:15:28.245Z,0.00
2018-04-08T01:16:28.159Z,0.00
2018-04-08T01:17:28.081Z,0.00
2018-04-08T01:18:28.015Z,0.00
2018-04-08T01:19:27.919Z,0.00
2018-04-08T01:20:27.846Z,0.00
2018-04-08T01:21:27.770Z,0.00
2018-04-08T01:22:27.682Z,0.00
2018-04-08T01:23:27.606Z,0.00
2018-04-08T01:24:27.533Z,0.00
2018-04-08T01:25:27.445Z,0.00
2018-04-08T01:26:27.371Z,0.00
2018-04-08T01:27:27.296Z,0.00
2018-04-08T01:28:27.208Z,0.00
2018-04-08T01:29:27.132Z,0.00
2018-04-08T01:30:27.046Z,0.00
2018-04-08T01:31:26.971Z,0.00
2018-04-08T01:32:26.896Z,0.00
2018-04-08T01:33:26.809Z,0.00
2018-04-08T01:34:26.732Z,0.00
2018-04-08T01:35:26.671Z,0.00
2018-04-08T01:36:26.572Z,0.00
2018-04-08T01:37:26.497Z,0.00
2018-04-08T01:38:26.421Z,0.00
2018-04-08T01:39:26.334Z,0.00
2018-04-08T01:40:26.276Z,0.00
2018-04-08T01:41:26.183Z,0.00
2018-04-08T01:42:26.097Z,0.00
2018-04-08T01:43:26.021Z,0.00
2018-04-08T01:44:25.935Z,0.00
2018-04-08T01:45:25.874Z,0.00
2018-04-08T01:46:25.784Z,0.00
2018-04-08T01:47:25.697Z,0.00
2018-04-08T01:48:25.622Z,0.00
2018-04-08T01:49:25.547Z,0.00
2018-04-08T01:50:25.475Z,0.00
2018-04-08T01:51:25.385Z,0.00
2018-04-08T01:52:25.311Z,0.00
2018-04-08T01:53:25.224Z,0.00
2018-04-08T01:54:25.164Z,0.00
2018-04-08T01:55:25.074Z,0.00
2018-04-08T01:56:24.984Z,0.00
2018-04-08T01:57:24.910Z,0.00
2018-04-08T01:58:24.825Z,0.00
2018-04-08T01:59:24.751Z,0.00
2018-04-08T02:00:24.674Z,0.00
2018-04-08T02:01:24.587Z,0.00
2018-04-08T02:02:24.511Z,0.00
2018-04-08T02:03:24.425Z,0.00
2018-04-08T02:04:24.350Z,0.00
2018-04-08T02:05:24.275Z,0.00
2018-04-08T02:06:24.187Z,0.00
2018-04-08T02:07:24.112Z,0.00
2018-04-08T02:08:24.037Z,0.00
2018-04-08T02:09:23.950Z,0.00
2018-04-08T02:10:23.876Z,0.00
2018-04-08T02:11:23.788Z,0.00
2018-04-08T02:12:23.712Z,0.00
2018-04-08T02:13:23.638Z,0.00
2018-04-08T02:14:23.551Z,0.00
2018-04-08T02:15:23.476Z,0.00
2018-04-08T02:16:23.390Z,0.00
2018-04-08T02:17:23.313Z,0.00
2018-04-08T02:18:23.239Z,0.00
2018-04-08T02:19:23.150Z,0.00
2018-04-08T02:20:23.076Z,0.00
2018-04-08T02:21:23.005Z,0.00
2018-04-08T02:22:22.913Z,0.00
2018-04-08T02:23:22.839Z,0.00
2018-04-08T02:24:22.751Z,0.00
2018-04-08T02:25:22.677Z,0.00
2018-04-08T02:26:22.602Z,0.00
2018-04-08T02:27:22.515Z,0.00
2018-04-08T02:28:22.442Z,0.00
2018-04-08T02:29:22.364Z,0.00
2018-04-08T02:30:22.280Z,0.00
2018-04-08T02:31:22.204Z,0.00
2018-04-08T02:32:22.114Z,0.00
2018-04-08T02:33:22.040Z,0.00
2018-04-08T02:34:21.954Z,0.00
2018-04-08T02:35:21.882Z,0.00
2018-04-08T02:36:21.812Z,0.00
2018-04-08T02:37:21.714Z,0.00
2018-04-08T02:38:21.642Z,0.00
2018-04-08T02:39:21.565Z,0.00
2018-04-08T02:40:21.480Z,0.00
2018-04-08T02:41:21.405Z,0.00
2018-04-08T02:42:21.316Z,0.00
2018-04-08T02:43:21.243Z,0.00
2018-04-08T02:44:21.166Z,0.00
2018-04-08T02:45:21.080Z,0.00
2018-04-08T02:46:21.004Z,0.00
2018-04-08T02:47:20.917Z,0.00
2018-04-08T02:48:20.854Z,0.00
2018-04-08T02:49:20.766Z,0.00
2018-04-08T02:50:20.684Z,0.00
2018-04-08T02:51:20.605Z,0.00
2018-04-08T02:52:20.518Z,0.00
2018-04-08T02:53:20.455Z,0.00
2018-04-08T02:54:20.367Z,0.00
2018-04-08T02:55:20.285Z,0.00
2018-04-08T02:56:20.206Z,0.00
2018-04-08T02:57:20.117Z,0.00
2018-04-08T02:58:20.056Z,0.00
2018-04-08T02:59:19.968Z,0.00
2018-04-08T03:00:19.890Z,0.00
2018-04-08T03:01:19.808Z,0.00
2018-04-08T03:02:19.719Z,0.00
2018-04-08T03:03:19.657Z,0.00
2018-04-08T03:04:19.569Z,0.00
2018-04-08T03:05:19.486Z,0.00
2018-04-08T03:06:19.410Z,0.00
2018-04-08T03:07:19.319Z,0.00
2018-04-08T03:08:19.243Z,0.00
2018-04-08T03:09:19.169Z,0.00
2018-04-08T03:10:19.082Z,0.00
2018-04-08T03:11:19.007Z,0.00
2018-04-08T03:12:18.918Z,0.00
2018-04-08T03:13:18.844Z,0.00
2018-04-08T03:14:18.758Z,0.00
2018-04-08T03:15:18.682Z,0.00
2018-04-08T03:16:18.609Z,0.00
2018-04-08T03:17:18.519Z,0.00
2018-04-08T03:18:18.446Z,0.00
2018-04-08T03:19:18.357Z,0.00
2018-04-08T03:20:18.283Z,0.00
2018-04-08T03:21:18.208Z,0.00
2018-04-08T03:22:18.119Z,0.00
2018-04-08T03:23:18.045Z,0.00
2018-04-08T03:24:17.958Z,0.00
2018-04-08T03:25:17.884Z,0.00
2018-04-08T03:26:17.808Z,0.00
2018-04-08T03:27:17.721Z,0.00
2018-04-08T03:28:17.645Z,0.00
2018-04-08T03:29:17.558Z,0.00
2018-04-08T03:30:17.485Z,0.00
2018-04-08T03:31:17.413Z,0.00
2018-04-08T03:32:17.320Z,0.00
2018-04-08T03:33:17.249Z,0.00
2018-04-08T03:34:17.159Z,0.00
2018-04-08T03:35:17.086Z,0.00
2018-04-08T03:36:16.997Z,0.00
2018-04-08T03:37:16.925Z,0.00
2018-04-08T03:38:16.847Z,0.00
2018-04-08T03:39:16.774Z,0.00
2018-04-08T03:40:16.685Z,0.00
2018-04-08T03:41:16.598Z,0.00
2018-04-08T03:42:16.521Z,0.00
2018-04-08T03:43:16.447Z,0.00
2018-04-08T03:44:16.360Z,0.00
2018-04-08T03:45:16.286Z,0.00
2018-04-08T03:46:16.200Z,0.00
2018-04-08T03:47:16.122Z,0.00
2018-04-08T03:48:16.047Z,0.00
2018-04-08T03:49:15.960Z,0.00
2018-04-08T03:50:15.886Z,0.00
2018-04-08T03:51:15.797Z,0.00
2018-04-08T03:52:15.726Z,0.00
2018-04-08T03:53:15.648Z,0.00
2018-04-08T03:54:15.562Z,0.00
2018-04-08T03:55:15.486Z,4.00
2018-04-08T03:56:15.398Z,4.00
2018-04-08T03:57:15.336Z,0.00
2018-04-08T03:58:15.237Z,4.00
2018-04-08T03:59:15.168Z,4.00
2018-04-08T04:00:15.091Z,4.00
2018-04-08T04:01:14.999Z,4.00
2018-04-08T04:02:14.926Z,4.00
2018-04-08T04:03:14.837Z,8.00
2018-04-08T04:04:14.769Z,8.00
2018-04-08T04:05:14.686Z,12.00
2018-04-08T04:06:14.599Z,12.00
2018-04-08T04:07:14.524Z,16.00
2018-04-08T04:08:14.437Z,16.00
2018-04-08T04:09:14.364Z,20.00
2018-04-08T04:10:14.276Z,20.00
2018-04-08T04:11:14.199Z,28.00
2018-04-08T04:12:14.126Z,32.00
2018-04-08T04:13:14.039Z,36.00
2018-04-08T04:14:13.963Z,40.00
2018-04-08T04:15:13.875Z,48.00
2018-04-08T04:16:13.800Z,52.00
2018-04-08T04:17:13.713Z,56.00
2018-04-08T04:18:13.638Z,64.00
2018-04-08T04:19:13.564Z,72.00
2018-04-08T04:20:13.475Z,84.00
2018-04-08T04:21:13.401Z,92.00
2018-04-08T04:22:13.316Z,100.00
2018-04-08T04:23:13.240Z,112.00
2018-04-08T04:24:13.152Z,124.00
2018-04-08T04:25:13.076Z,132.00
2018-04-08T04:26:13.002Z,148.00
2018-04-08T04:27:12.916Z,156.00
2018-04-08T04:28:12.840Z,176.00
2018-04-08T04:29:12.751Z,188.00
2018-04-08T04:30:12.677Z,204.00
2018-04-08T04:31:12.590Z,220.00
2018-04-08T04:32:12.515Z,240.00
2018-04-08T04:33:12.440Z,252.00
2018-04-08T04:34:12.355Z,276.00
2018-04-08T04:35:12.289Z,296.00
2018-04-08T04:36:12.190Z,312.00
2018-04-08T04:37:12.115Z,332.00
2018-04-08T04:38:12.028Z,356.00
2018-04-08T04:39:11.953Z,376.00
2018-04-08T04:40:11.880Z,400.00
2018-04-08T04:41:11.792Z,420.00
2018-04-08T04:42:11.722Z,444.00
2018-04-08T04:43:11.628Z,468.00
2018-04-08T04:44:11.553Z,492.00
2018-04-08T04:45:11.467Z,516.00
2018-04-08T04:46:11.392Z,540.00
2018-04-08T04:47:11.318Z,568.00
2018-04-08T04:48:11.229Z,596.00
2018-04-08T04:49:11.154Z,620.00
2018-04-08T04:50:11.068Z,648.00
2018-04-08T04:51:10.994Z,676.00
2018-04-08T04:52:10.904Z,700.00
2018-04-08T04:53:10.830Z,728.00
2018-04-08T04:54:10.760Z,756.00
2018-04-08T04:55:10.668Z,784.00
2018-04-08T04:56:10.593Z,812.00
2018-04-08T04:57:10.505Z,840.00
2018-04-08T04:58:10.431Z,872.00
2018-04-08T04:59:10.354Z,900.00
2018-04-08T05:00:10.269Z,928.00
2018-04-08T05:01:10.193Z,956.00
2018-04-08T05:02:10.106Z,992.00
2018-04-08T05:03:10.030Z,1020.00
2018-04-08T05:04:09.944Z,1048.00
2018-04-08T05:05:09.869Z,1080.00
2018-04-08T05:06:09.781Z,1116.00
2018-04-08T05:07:09.706Z,1160.00
2018-04-08T05:08:09.631Z,1204.00
2018-04-08T05:09:09.545Z,1256.00
2018-04-08T05:10:09.468Z,1308.00
2018-04-08T05:11:09.383Z,1356.00
2018-04-08T05:12:09.307Z,1412.00
2018-04-08T05:13:09.219Z,1460.00
2018-04-08T05:14:09.144Z,1512.00
2018-04-08T05:15:09.058Z,1568.00
2018-04-08T05:16:08.995Z,1620.00
2018-04-08T05:17:08.906Z,1692.00
2018-04-08T05:18:08.820Z,1740.00
2018-04-08T05:19:08.746Z,1800.00
2018-04-08T05:20:08.657Z,1888.00
2018-04-08T05:21:08.582Z,1936.00
2018-04-08T05:22:08.506Z,1952.00
2018-04-08T05:23:08.473Z,1948.00
2018-04-08T05:24:08.345Z,1972.00
2018-04-08T05:25:08.258Z,2020.00
2018-04-08T05:26:08.183Z,2080.00
2018-04-08T05:27:08.096Z,2100.00
2018-04-08T05:28:08.022Z,2136.00
2018-04-08T05:29:07.946Z,2148.00
2018-04-08T05:30:07.859Z,2132.00
2018-04-08T05:31:07.784Z,2144.00
2018-04-08T05:32:07.696Z,2176.00
2018-04-08T05:33:07.623Z,2228.00
2018-04-08T05:34:07.534Z,2240.00
2018-04-08T05:35:07.460Z,2240.00
2018-04-08T05:36:07.385Z,2256.00
2018-04-08T05:37:07.297Z,2280.00
2018-04-08T05:38:07.224Z,2308.00
2018-04-08T05:39:07.135Z,2332.00
2018-04-08T05:40:07.062Z,2364.00
2018-04-08T05:41:06.984Z,2384.00
2018-04-08T05:42:06.897Z,2408.00
2018-04-08T05:43:06.824Z,2432.00
2018-04-08T05:44:06.748Z,2456.00
2018-04-08T05:45:06.660Z,2480.00
2018-04-08T05:46:06.584Z,2500.00
2018-04-08T05:47:06.498Z,2516.00
2018-04-08T05:48:06.423Z,2528.00
2018-04-08T05:49:06.351Z,2548.00
2018-04-08T05:50:06.261Z,2564.00
2018-04-08T05:51:06.185Z,2592.00
2018-04-08T05:52:06.098Z,2628.00
2018-04-08T05:53:06.030Z,2692.00
2018-04-08T05:54:05.948Z,2748.00
2018-04-08T05:55:05.874Z,2784.00
2018-04-08T05:56:05.786Z,2740.00
2018-04-08T05:57:05.699Z,2724.00
2018-04-08T05:58:05.934Z,2776.00
2018-04-08T05:59:05.549Z,2752.00
2018-04-08T06:00:05.501Z,2788.00
2018-04-08T06:01:05.388Z,2856.00
2018-04-08T06:02:05.311Z,2948.00
2018-04-08T06:03:05.225Z,3100.00
2018-04-08T06:04:05.155Z,3180.00
2018-04-08T06:05:05.063Z,3116.00
2018-04-08T06:06:04.987Z,3084.00
2018-04-08T06:07:04.911Z,3204.00
2018-04-08T06:08:04.826Z,3232.00
2018-04-08T06:09:04.750Z,3312.00
2018-04-08T06:10:04.711Z,3312.00
2018-04-08T06:11:04.587Z,3468.00
2018-04-08T06:12:04.512Z,3600.00
2018-04-08T06:13:04.438Z,3736.00
2018-04-08T06:14:04.351Z,3812.00
2018-04-08T06:15:04.277Z,3896.00
2018-04-08T06:16:04.188Z,3860.00
2018-04-08T06:17:04.112Z,3612.00
2018-04-08T06:18:04.038Z,3620.00
2018-04-08T06:19:03.952Z,3748.00
2018-04-08T06:20:03.876Z,4172.00
2018-04-08T06:21:03.802Z,4156.00
2018-04-08T06:22:03.720Z,4168.00
2018-04-08T06:23:03.938Z,4100.00
2018-04-08T06:24:03.564Z,3976.00
2018-04-08T06:25:03.478Z,4280.00
2018-04-08T06:26:03.402Z,4408.00
2018-04-08T06:27:03.326Z,4336.00
2018-04-08T06:28:03.253Z,3884.00
2018-04-08T06:29:03.164Z,3928.00
2018-04-08T06:30:03.089Z,4432.00
2018-04-08T06:31:03.014Z,4176.00
2018-04-08T06:32:02.928Z,4076.00
2018-04-08T06:33:02.863Z,4324.00
2018-04-08T06:34:02.781Z,4564.00
2018-04-08T06:35:02.691Z,4528.00
2018-04-08T06:36:02.619Z,4688.00
2018-04-08T06:37:02.539Z,4740.00
2018-04-08T06:38:02.766Z,4740.00
2018-04-08T06:39:02.378Z,4644.00
2018-04-08T06:40:02.305Z,4492.00
2018-04-08T06:41:02.229Z,4296.00
2018-04-08T06:42:02.141Z,4348.00
2018-04-08T06:43:02.066Z,4664.00
2018-04-08T06:44:01.990Z,5032.00
2018-04-08T06:45:01.917Z,4828.00
2018-04-08T06:46:01.829Z,4764.00
2018-04-08T06:47:01.755Z,4968.00
2018-04-08T06:48:01.680Z,5160.00
2018-04-08T06:49:01.605Z,5468.00
2018-04-08T06:50:01.517Z,5452.00
2018-04-08T06:51:01.441Z,5548.00
2018-04-08T06:52:01.366Z,5712.00
2018-04-08T06:53:01.291Z,5320.00
2018-04-08T06:54:01.205Z,5104.00
2018-04-08T06:55:01.130Z,5224.00
2018-04-08T06:56:01.055Z,5404.00
2018-04-08T06:57:00.980Z,5560.00
2018-04-08T06:58:00.905Z,5484.00
2018-04-08T06:59:00.817Z,5604.00
2018-04-08T07:00:00.742Z,5668.00
2018-04-08T07:01:00.667Z,5880.00
2018-04-08T07:02:00.594Z,5948.00
2018-04-08T07:03:00.770Z,5844.00
2018-04-08T07:04:00.431Z,6160.00
2018-04-08T07:05:00.356Z,6172.00
2018-04-08T07:06:00.281Z,6076.00
2018-04-08T07:07:00.206Z,6068.00
2018-04-08T07:08:00.119Z,6436.00
2018-04-08T07:09:00.043Z,6644.00
2018-04-08T07:09:59.969Z,6716.00
2018-04-08T07:10:59.893Z,6784.00
2018-04-08T07:11:59.865Z,6836.00
2018-04-08T07:12:59.743Z,6648.00
2018-04-08T07:13:59.657Z,6752.00
2018-04-08T07:14:59.582Z,6716.00
2018-04-08T07:15:59.507Z,6772.00
2018-04-08T07:16:59.435Z,6888.00
2018-04-08T07:17:59.357Z,6772.00
2018-04-08T07:18:59.283Z,6960.00
2018-04-08T07:19:59.207Z,7096.00
2018-04-08T07:20:59.132Z,7088.00
2018-04-08T07:21:59.045Z,7052.00
2018-04-08T07:22:58.970Z,7048.00
2018-04-08T07:23:58.908Z,7128.00
2018-04-08T07:24:58.820Z,7100.00
2018-04-08T07:25:58.745Z,7076.00
2018-04-08T07:26:58.671Z,7112.00
2018-04-08T07:27:58.597Z,7100.00
2018-04-08T07:28:58.520Z,7116.00
2018-04-08T07:29:58.445Z,7140.00
2018-04-08T07:30:58.370Z,7144.00
2018-04-08T07:31:58.309Z,7124.00
2018-04-08T07:32:58.220Z,7124.00
2018-04-08T07:33:58.135Z,7116.00
2018-04-08T07:34:58.059Z,7132.00
2018-04-08T07:35:57.984Z,7100.00
2018-04-08T07:36:57.910Z,7104.00
2018-04-08T07:37:57.844Z,7084.00
2018-04-08T07:38:57.758Z,7076.00
2018-04-08T07:39:57.685Z,7036.00
2018-04-08T07:40:57.610Z,7024.00
2018-04-08T07:41:57.539Z,7028.00
2018-04-08T07:42:57.459Z,7060.00
2018-04-08T07:43:57.387Z,7072.00
2018-04-08T07:44:57.310Z,7072.00
2018-04-08T07:45:57.237Z,7072.00
2018-04-08T07:46:57.162Z,7084.00
2018-04-08T07:47:57.086Z,7092.00
2018-04-08T07:48:57.011Z,7132.00
2018-04-08T07:49:56.939Z,7128.00
2018-04-08T07:50:56.884Z,7128.00
2018-04-08T07:51:56.797Z,7180.00
2018-04-08T07:52:56.740Z,7224.00
2018-04-08T07:53:56.648Z,7268.00
2018-04-08T07:54:56.572Z,7316.00
2018-04-08T07:55:56.498Z,7356.00
2018-04-08T07:56:56.425Z,7440.00
2018-04-08T07:57:56.348Z,7536.00
2018-04-08T07:58:56.274Z,7620.00
2018-04-08T07:59:56.202Z,7700.00
2018-04-08T08:00:56.124Z,7804.00
2018-04-08T08:01:56.049Z,7892.00
2018-04-08T08:02:55.973Z,7924.00
2018-04-08T08:03:55.899Z,8020.00
2018-04-08T08:04:55.825Z,8040.00
2018-04-08T08:05:55.751Z,8140.00
2018-04-08T08:06:55.675Z,8164.00
2018-04-08T08:07:55.601Z,8308.00
2018-04-08T08:08:55.538Z,8372.00
2018-04-08T08:09:55.463Z,8396.00
2018-04-08T08:10:55.388Z,8428.00
2018-04-08T08:11:55.315Z,8388.00
2018-04-08T08:12:55.238Z,8444.00
2018-04-08T08:13:55.163Z,8456.00
2018-04-08T08:14:55.088Z,8436.00
2018-04-08T08:15:55.014Z,8500.00
2018-04-08T08:16:54.939Z,8560.00
2018-04-08T08:17:54.864Z,8624.00
2018-04-08T08:18:54.790Z,8740.00
2018-04-08T08:19:54.714Z,8872.00
2018-04-08T08:20:54.640Z,9116.00
2018-04-08T08:21:54.565Z,9612.00
2018-04-08T08:22:54.501Z,10248.00
2018-04-08T08:23:54.426Z,11176.00
2018-04-08T08:24:54.356Z,12180.00
2018-04-08T08:25:54.278Z,12864.00
2018-04-08T08:26:54.201Z,13144.00
2018-04-08T08:27:54.128Z,13112.00
2018-04-08T08:28:54.052Z,13320.00
2018-04-08T08:29:53.977Z,13296.00
2018-04-08T08:30:53.917Z,13200.00
2018-04-08T08:31:53.876Z,13220.00
2018-04-08T08:32:53.766Z,13016.00
2018-04-08T08:33:53.691Z,13472.00
2018-04-08T08:34:53.616Z,13556.00
2018-04-08T08:35:53.553Z,13564.00
2018-04-08T08:36:53.477Z,14136.00
2018-04-08T08:37:53.402Z,14448.00
2018-04-08T08:38:53.341Z,15436.00
2018-04-08T08:39:53.254Z,15956.00
2018-04-08T08:40:53.192Z,16448.00
2018-04-08T08:41:53.116Z,15020.00
2018-04-08T08:42:53.042Z,13860.00
2018-04-08T08:43:52.967Z,14660.00
2018-04-08T08:44:52.904Z,15572.00
2018-04-08T08:45:52.842Z,16128.00
2018-04-08T08:46:52.753Z,10632.00
2018-04-08T08:47:52.691Z,8856.00
2018-04-08T08:48:52.617Z,8148.00
2018-04-08T08:49:52.542Z,8080.00
2018-04-08T08:50:52.467Z,7936.00
2018-04-08T08:51:52.404Z,7864.00
2018-04-08T08:52:52.343Z,8052.00
2018-04-08T08:53:52.254Z,8724.00
2018-04-08T08:54:52.202Z,9044.00
2018-04-08T08:55:52.117Z,8884.00
2018-04-08T08:56:52.044Z,8716.00
2018-04-08T08:57:51.982Z,8676.00
2018-04-08T08:58:51.905Z,8416.00
2018-04-08T08:59:51.845Z,8244.00
2018-04-08T09:00:51.769Z,8096.00
2018-04-08T09:01:51.694Z,7928.00
2018-04-08T09:02:51.619Z,7856.00
2018-04-08T09:03:51.544Z,7772.00
2018-04-08T09:04:51.481Z,7764.00
2018-04-08T09:05:51.406Z,7656.00
2018-04-08T09:06:51.330Z,7548.00
2018-04-08T09:07:51.269Z,7592.00
2018-04-08T09:08:51.194Z,7568.00
2018-04-08T09:09:51.126Z,7752.00
2018-04-08T09:10:51.056Z,7860.00
2018-04-08T09:11:50.994Z,8032.00
2018-04-08T09:12:50.907Z,8080.00
2018-04-08T09:13:50.834Z,7844.00
2018-04-08T09:14:50.770Z,7684.00
2018-04-08T09:15:50.695Z,7548.00
2018-04-08T09:16:50.621Z,7728.00
2018-04-08T09:17:50.558Z,5972.00
2018-04-08T09:18:50.482Z,6068.00
2018-04-08T09:19:50.407Z,5504.00
2018-04-08T09:20:50.333Z,5372.00
2018-04-08T09:21:50.271Z,5428.00
2018-04-08T09:22:50.198Z,5336.00
2018-04-08T09:23:50.120Z,5372.00
2018-04-08T09:24:50.046Z,5324.00
2018-04-08T09:25:49.983Z,5248.00
2018-04-08T09:26:49.911Z,5296.00
2018-04-08T09:27:49.843Z,5308.00
2018-04-08T09:28:49.758Z,5268.00
2018-04-08T09:29:49.684Z,5316.00
2018-04-08T09:30:49.622Z,5368.00
2018-04-08T09:31:49.535Z,5384.00
2018-04-08T09:32:49.472Z,5464.00
2018-04-08T09:33:49.397Z,5420.00
2018-04-08T09:34:49.322Z,5484.00
2018-04-08T09:35:49.250Z,5384.00
2018-04-08T09:36:49.172Z,5464.00
2018-04-08T09:37:49.097Z,5484.00
2018-04-08T09:38:49.022Z,6348.00
2018-04-08T09:39:48.950Z,6472.00
2018-04-08T09:40:48.872Z,7536.00
2018-04-08T09:41:48.798Z,5240.00
2018-04-08T09:42:48.724Z,5096.00
2018-04-08T09:43:48.673Z,5100.00
2018-04-08T09:44:48.587Z,5084.00
2018-04-08T09:45:48.511Z,5092.00
2018-04-08T09:46:48.435Z,5120.00
2018-04-08T09:47:48.374Z,5100.00
2018-04-08T09:48:48.285Z,5112.00
2018-04-08T09:49:48.211Z,4896.00
2018-04-08T09:50:48.139Z,5608.00
2018-04-08T09:51:48.061Z,5052.00
2018-04-08T09:52:47.986Z,5328.00
2018-04-08T09:53:47.912Z,4992.00
2018-04-08T09:54:47.836Z,8280.00
2018-04-08T09:55:47.763Z,4964.00
2018-04-08T09:56:47.687Z,5044.00
2018-04-08T09:57:47.627Z,5124.00
2018-04-08T09:58:47.550Z,5024.00
2018-04-08T09:59:47.475Z,5028.00
2018-04-08T10:00:47.404Z,5004.00
2018-04-08T10:01:47.324Z,5012.00
2018-04-08T10:02:47.251Z,5076.00
2018-04-08T10:03:47.183Z,5080.00
2018-04-08T10:04:47.106Z,5104.00
2018-04-08T10:05:47.025Z,4996.00
2018-04-08T10:06:46.951Z,5056.00
2018-04-08T10:07:46.877Z,5032.00
2018-04-08T10:08:46.811Z,5120.00
2018-04-08T10:09:46.726Z,5164.00
2018-04-08T10:10:46.653Z,5184.00
2018-04-08T10:11:46.576Z,5212.00
2018-04-08T10:12:46.514Z,5232.00
2018-04-08T10:13:46.440Z,5236.00
2018-04-08T10:14:46.377Z,5272.00
2018-04-08T10:15:46.288Z,5248.00
2018-04-08T10:16:46.214Z,5268.00
2018-04-08T10:17:46.138Z,5292.00
2018-04-08T10:18:46.077Z,5300.00
2018-04-08T10:19:45.988Z,5324.00
2018-04-08T10:20:45.914Z,5304.00
2018-04-08T10:21:45.839Z,5316.00
2018-04-08T10:22:45.767Z,5340.00
2018-04-08T10:23:45.689Z,5356.00
2018-04-08T10:24:45.650Z,5428.00
2018-04-08T10:25:45.539Z,5392.00
2018-04-08T10:26:45.464Z,5924.00
2018-04-08T10:27:45.389Z,5896.00
2018-04-08T10:28:45.314Z,5504.00
2018-04-08T10:29:45.241Z,6448.00
2018-04-08T10:30:45.178Z,6520.00
2018-04-08T10:31:45.090Z,7052.00
2018-04-08T10:32:45.018Z,5600.00
2018-04-08T10:33:44.942Z,8132.00
2018-04-08T10:34:44.879Z,6892.00
2018-04-08T10:35:44.804Z,6464.00
2018-04-08T10:36:44.729Z,6084.00
2018-04-08T10:37:44.654Z,6628.00
2018-04-08T10:38:44.579Z,6072.00
2018-04-08T10:39:44.505Z,6224.00
2018-04-08T10:40:44.429Z,6216.00
2018-04-08T10:41:44.355Z,5868.00
2018-04-08T10:42:44.291Z,5844.00
2018-04-08T10:43:44.229Z,6728.00
2018-04-08T10:44:44.187Z,6908.00
2018-04-08T10:45:44.066Z,11544.00
2018-04-08T10:46:43.991Z,11352.00
2018-04-08T10:47:43.917Z,11324.00
2018-04-08T10:48:43.854Z,11724.00
2018-04-08T10:49:43.780Z,11616.00
2018-04-08T10:50:43.706Z,11548.00
2018-04-08T10:51:43.655Z,11548.00
2018-04-08T10:52:43.567Z,11480.00
2018-04-08T10:53:43.492Z,11400.00
2018-04-08T10:54:43.419Z,11476.00
2018-04-08T10:55:43.342Z,11664.00
2018-04-08T10:56:43.282Z,11900.00
2018-04-08T10:57:43.213Z,12036.00
2018-04-08T10:58:43.131Z,12312.00
2018-04-08T10:59:43.067Z,12380.00
2018-04-08T11:00:42.995Z,6268.00
2018-04-08T11:01:42.920Z,10568.00
2018-04-08T11:02:42.857Z,12248.00
2018-04-08T11:03:42.782Z,6628.00
2018-04-08T11:04:42.763Z,7996.00
2018-04-08T11:05:42.643Z,8128.00
2018-04-08T11:06:42.584Z,6540.00
2018-04-08T11:07:42.507Z,6580.00
2018-04-08T11:08:42.432Z,7220.00
2018-04-08T11:09:42.370Z,7532.00
2018-04-08T11:10:42.294Z,7088.00
2018-04-08T11:11:42.232Z,12600.00
2018-04-08T11:12:42.161Z,13340.00
2018-04-08T11:13:42.094Z,13604.00
2018-04-08T11:14:42.032Z,10580.00
2018-04-08T11:15:41.944Z,13996.00
2018-04-08T11:16:41.883Z,14032.00
2018-04-08T11:17:41.808Z,14288.00
2018-04-08T11:18:41.734Z,14252.00
2018-04-08T11:19:41.673Z,14276.00
2018-04-08T11:20:41.595Z,14432.00
2018-04-08T11:21:41.533Z,14384.00
2018-04-08T11:22:41.459Z,14440.00
2018-04-08T11:23:41.396Z,14416.00
2018-04-08T11:24:41.334Z,14596.00
2018-04-08T11:25:41.248Z,14592.00
2018-04-08T11:26:41.184Z,14572.00
2018-04-08T11:27:41.134Z,14768.00
2018-04-08T11:28:41.046Z,14976.00
2018-04-08T11:29:40.983Z,15156.00
2018-04-08T11:30:40.910Z,15532.00
2018-04-08T11:31:40.846Z,15676.00
2018-04-08T11:32:40.790Z,15656.00
2018-04-08T11:33:40.710Z,15512.00
2018-04-08T11:34:40.647Z,15612.00
2018-04-08T11:35:40.577Z,15824.00
2018-04-08T11:36:40.510Z,15620.00
2018-04-08T11:37:40.447Z,15576.00
2018-04-08T11:38:40.372Z,15820.00
2018-04-08T11:39:40.310Z,16032.00
2018-04-08T11:40:40.247Z,16092.00
2018-04-08T11:41:40.172Z,16104.00
2018-04-08T11:42:40.110Z,15860.00
2018-04-08T11:43:40.035Z,15472.00
2018-04-08T11:44:39.973Z,15380.00
2018-04-08T11:45:39.910Z,15520.00
2018-04-08T11:46:39.836Z,15768.00
2018-04-08T11:47:39.773Z,15980.00
2018-04-08T11:48:39.712Z,16064.00
2018-04-08T11:49:39.636Z,16088.00
2018-04-08T11:50:39.573Z,16192.00
2018-04-08T11:51:39.511Z,16120.00
2018-04-08T11:52:39.436Z,15932.00
2018-04-08T11:53:39.373Z,15812.00
2018-04-08T11:54:39.312Z,15652.00
2018-04-08T11:55:39.248Z,15548.00
2018-04-08T11:56:39.175Z,15488.00
2018-04-08T11:57:39.112Z,15348.00
2018-04-08T11:58:39.049Z,15384.00
2018-04-08T11:59:38.987Z,15392.00
2018-04-08T12:00:38.916Z,15172.00
2018-04-08T12:01:38.849Z,15060.00
2018-04-08T12:02:38.788Z,14940.00
2018-04-08T12:03:38.730Z,14948.00
2018-04-08T12:04:38.651Z,14988.00
2018-04-08T12:05:38.587Z,14956.00
2018-04-08T12:06:38.527Z,14952.00
2018-04-08T12:07:38.463Z,15152.00
2018-04-08T12:08:38.413Z,14988.00
2018-04-08T12:09:38.329Z,14716.00
2018-04-08T12:10:38.268Z,14528.00
2018-04-08T12:11:38.201Z,14336.00
2018-04-08T12:12:38.126Z,14352.00
2018-04-08T12:13:38.068Z,14340.00
2018-04-08T12:14:38.001Z,14272.00
2018-04-08T12:15:37.941Z,14184.00
2018-04-08T12:16:37.865Z,14176.00
2018-04-08T12:17:37.802Z,14124.00
2018-04-08T12:18:37.742Z,14052.00
2018-04-08T12:19:37.665Z,14140.00
2018-04-08T12:20:37.606Z,14140.00
2018-04-08T12:21:37.545Z,14240.00
2018-04-08T12:22:37.475Z,14628.00
2018-04-08T12:23:37.414Z,14732.00
2018-04-08T12:24:37.347Z,14900.00
2018-04-08T12:25:37.278Z,15116.00